Time;durP1;ratioP1;P1;durP2;ratioP2;P2;SDS_P1;SDS_P2;PMS_P1;PMS_P2;Temp;Humidity;BMP_temperature;BMP_pressure;BME280_temperature;BME280_humidity;BME280_pressure;Samples;Min_cycle;Max_cycle;Signal;HPM_P1;HPM_P2
2023/08/25 00:02:08;;;;;;;0.70;0.70;;;;;;;23.52;60.87;96487.34;10430259;28;20302;-30
2023/08/25 00:07:09;;;;;;;0.52;0.52;;;;;;;23.51;60.95;96470.34;10422826;28;20033;-30
2023/08/25 00:12:09;;;;;;;0.63;0.63;;;;;;;23.53;60.99;96468.59;10442616;28;20053;-28
2023/08/25 00:17:10;;;;;;;0.85;0.85;;;;;;;23.52;60.88;96461.81;10435124;28;20087;-30
2023/08/25 00:22:10;;;;;;;0.77;0.77;;;;;;;23.53;60.98;96454.97;10418914;28;20423;-30
2023/08/25 00:27:11;;;;;;;0.57;0.57;;;;;;;23.52;60.67;96448.16;10438553;28;20039;-30
2023/08/25 00:32:11;;;;;;;0.93;0.85;;;;;;;23.52;61.11;96445.63;10432446;28;20287;-30
2023/08/25 00:37:12;;;;;;;0.80;0.80;;;;;;;23.49;60.90;96438.03;10432286;28;20037;-29
2023/08/25 00:42:13;;;;;;;0.80;0.80;;;;;;;23.49;60.77;96446.53;10429974;28;20507;-29
2023/08/25 00:47:14;;;;;;;0.63;0.63;;;;;;;23.52;61.08;96461.81;10426264;28;20044;-29
2023/08/25 00:52:16;;;;;;;0.60;0.60;;;;;;;23.52;61.05;96451.59;10428664;28;20116;-29
2023/08/25 00:57:18;;;;;;;0.70;0.70;;;;;;;23.51;61.09;96439.69;10416278;28;20419;-29
2023/08/25 01:02:19;;;;;;;0.60;0.60;;;;;;;23.51;61.04;96436.28;10423155;28;20048;-30
2023/08/25 01:07:19;;;;;;;0.75;0.70;;;;;;;23.52;60.88;96426.03;10424405;28;20039;-30
2023/08/25 01:12:35;;;;;;;0.87;0.87;;;;;;;23.52;61.00;96438.81;10427144;28;20027;-30
2023/08/25 01:17:48;;;;;;;1.10;1.00;;;;;;;23.47;60.84;96412.50;10420869;28;20045;-30
2023/08/25 01:22:52;;;;;;;0.60;0.60;;;;;;;23.52;60.88;96431.13;10401331;28;20627;-29
2023/08/25 01:27:58;;;;;;;1.17;0.65;;;;;;;23.50;60.92;96414.97;10419904;28;20049;-30
2023/08/25 01:32:59;;;;;;;0.60;0.60;;;;;;;23.48;60.92;96400.59;10417891;28;20060;-30
2023/08/25 01:38:06;;;;;;;0.50;0.50;;;;;;;23.52;60.89;96414.94;10427308;28;20028;-30
2023/08/25 01:43:10;;;;;;;0.52;0.52;;;;;;;23.53;60.88;96417.47;10426551;28;20040;-30
2023/08/25 01:48:13;;;;;;;1.08;1.08;;;;;;;23.52;60.84;96413.25;10410820;28;20024;-30
2023/08/25 01:53:14;;;;;;;0.65;0.65;;;;;;;23.52;61.01;96385.13;10415516;28;20034;-30
2023/08/25 01:58:14;;;;;;;1.08;0.98;;;;;;;23.50;60.82;96379.19;10436660;28;20029;-30
2023/08/25 02:03:15;;;;;;;0.60;0.60;;;;;;;23.52;61.01;96377.47;10442227;28;20035;-30
2023/08/25 02:08:16;;;;;;;0.90;0.80;;;;;;;23.51;60.94;96368.13;10432534;28;20033;-29
2023/08/25 02:13:16;;;;;;;0.63;0.63;;;;;;;23.51;61.25;96360.47;10426707;28;20059;-29
2023/08/25 02:18:16;;;;;;;0.47;0.47;;;;;;;23.51;60.91;96347.69;10427152;28;20311;-29
2023/08/25 02:23:17;;;;;;;0.40;0.40;;;;;;;23.51;60.89;96341.72;10419290;28;20288;-29
2023/08/25 02:28:17;;;;;;;0.50;0.50;;;;;;;23.50;60.61;96325.53;10417747;28;20482;-30
2023/08/25 02:33:18;;;;;;;0.70;0.60;;;;;;;23.52;60.79;96312.72;10428719;28;20078;-29
2023/08/25 02:38:19;;;;;;;0.63;0.63;;;;;;;23.51;60.68;96301.69;10415368;28;20029;-30
2023/08/25 02:43:19;;;;;;;0.70;0.63;;;;;;;23.47;61.08;96278.78;10418248;28;20116;-29
2023/08/25 02:48:20;;;;;;;0.80;0.80;;;;;;;23.52;60.89;96288.03;10425370;28;20037;-30
2023/08/25 02:53:21;;;;;;;0.60;0.60;;;;;;;23.52;60.94;96267.59;10418079;28;20029;-29
2023/08/25 02:58:21;;;;;;;0.83;0.67;;;;;;;23.53;60.80;96273.50;10433433;28;20025;-30
2023/08/25 03:03:22;;;;;;;0.68;0.68;;;;;;;23.53;60.66;96264.16;10431334;28;20204;-30
2023/08/25 03:08:23;;;;;;;1.23;0.80;;;;;;;23.52;60.78;96249.69;10414843;28;20107;-30
2023/08/25 03:13:24;;;;;;;0.95;0.70;;;;;;;23.51;60.90;96250.56;10434247;28;20017;-30
2023/08/25 03:18:24;;;;;;;0.70;0.70;;;;;;;23.50;60.78;96238.66;10415210;28;20039;-29
2023/08/25 03:23:25;;;;;;;0.40;0.40;;;;;;;23.49;60.65;96219.09;10433836;28;20063;-29
2023/08/25 03:28:25;;;;;;;0.40;0.40;;;;;;;23.50;60.77;96213.09;10426422;28;20040;-29
2023/08/25 03:33:25;;;;;;;0.70;0.60;;;;;;;23.51;60.67;96217.34;10434266;28;20381;-29
2023/08/25 03:38:26;;;;;;;0.50;0.50;;;;;;;23.51;60.68;96208.84;10418401;28;20029;-30
2023/08/25 03:43:26;;;;;;;0.60;0.60;;;;;;;23.50;60.61;96210.53;10444143;28;20025;-30
2023/08/25 03:48:27;;;;;;;0.73;0.47;;;;;;;23.50;60.60;96200.31;10429921;28;20291;-29
2023/08/25 03:53:27;;;;;;;0.60;0.60;;;;;;;23.50;60.64;96200.31;10410715;28;20037;-29
2023/08/25 03:58:28;;;;;;;0.40;0.40;;;;;;;23.49;60.65;96191.00;10421085;28;20384;-30
2023/08/25 04:03:28;;;;;;;0.40;0.40;;;;;;;23.49;60.54;96191.00;10419767;28;20029;-30
2023/08/25 04:08:29;;;;;;;0.37;0.37;;;;;;;23.50;60.56;96190.09;10429407;28;20294;-30
2023/08/25 04:13:29;;;;;;;0.50;0.50;;;;;;;23.51;60.67;96189.25;10415187;28;20480;-29
2023/08/25 04:18:30;;;;;;;0.57;0.57;;;;;;;23.50;60.72;96156.06;10420518;28;20472;-30
2023/08/25 04:23:30;;;;;;;0.50;0.50;;;;;;;23.50;60.56;96154.31;10429557;28;20287;-30
2023/08/25 04:28:30;;;;;;;0.47;0.43;;;;;;;23.50;60.61;96156.88;10402843;28;20025;-29
2023/08/25 04:33:31;;;;;;;0.52;0.47;;;;;;;23.50;60.81;96156.88;10421256;28;20030;-29
2023/08/25 04:38:33;;;;;;;0.60;0.60;;;;;;;23.51;60.62;96153.47;10404255;28;20029;-29
2023/08/25 04:43:33;;;;;;;0.57;0.57;;;;;;;23.53;60.81;96146.59;10419252;28;20483;-30
2023/08/25 04:48:34;;;;;;;1.15;0.70;;;;;;;23.54;60.55;96152.53;10414705;28;20025;-30
2023/08/25 04:53:35;;;;;;;0.70;0.67;;;;;;;23.53;60.68;96133.81;10431677;28;20487;-30
2023/08/25 04:58:35;;;;;;;0.53;0.53;;;;;;;23.51;60.62;96150.91;10431380;28;20033;-30
2023/08/25 05:03:36;;;;;;;0.32;0.32;;;;;;;23.50;60.61;96146.66;10451759;28;20025;-29
2023/08/25 05:08:37;;;;;;;0.60;0.30;;;;;;;23.50;60.66;96140.72;10434289;28;20410;-29
2023/08/25 05:13:37;;;;;;;0.93;0.40;;;;;;;23.52;60.90;96164.50;10431670;28;20385;-30
2023/08/25 05:18:39;;;;;;;0.60;0.60;;;;;;;23.53;60.83;96187.47;10447953;28;20050;-29
2023/08/25 05:23:43;;;;;;;0.70;0.70;;;;;;;23.53;60.80;96213.03;10425900;28;20058;-29
2023/08/25 05:28:46;;;;;;;0.77;0.70;;;;;;;23.54;60.57;96245.38;10451113;28;20108;-30
2023/08/25 05:33:46;;;;;;;1.30;1.00;;;;;;;23.56;60.72;96273.44;10419156;28;20037;-29
2023/08/25 05:39:13;;;;;;;0.85;0.70;;;;;;;23.54;60.74;96281.16;10434398;28;20052;-30
2023/08/25 05:44:14;;;;;;;0.57;0.57;;;;;;;23.53;60.70;96287.16;10428273;28;20033;-29
2023/08/25 05:49:14;;;;;;;0.70;0.70;;;;;;;23.52;60.73;96288.03;10435959;28;20295;-31
2023/08/25 05:54:15;;;;;;;0.70;0.70;;;;;;;23.53;60.71;96299.06;10442395;28;20028;-29
2023/08/25 05:59:15;;;;;;;0.60;0.60;;;;;;;23.51;60.76;96319.56;10440108;28;20033;-30
2023/08/25 06:04:16;;;;;;;0.65;0.65;;;;;;;23.56;60.79;96384.16;10450641;28;20406;-30
2023/08/25 06:09:17;;;;;;;0.80;0.80;;;;;;;23.56;60.64;96440.41;10431559;28;20116;-30
2023/08/25 06:14:17;;;;;;;0.65;0.50;;;;;;;23.54;60.74;96446.41;10443345;28;20506;-30
2023/08/25 06:19:18;;;;;;;0.70;0.60;;;;;;;23.54;60.92;96454.06;10434727;28;20040;-30
2023/08/25 06:24:18;;;;;;;0.70;0.70;;;;;;;23.53;60.82;96486.47;10440783;28;20041;-30
2023/08/25 06:29:19;;;;;;;1.77;0.80;;;;;;;23.54;60.82;96526.50;10443303;28;20044;-30
2023/08/25 06:34:19;;;;;;;0.70;0.70;;;;;;;23.54;60.77;96549.50;10436609;28;20072;-29
2023/08/25 06:39:21;;;;;;;1.00;0.80;;;;;;;23.55;60.86;96594.63;10443213;28;20032;-30
2023/08/25 06:44:21;;;;;;;1.40;0.75;;;;;;;23.54;61.11;96621.06;10434883;28;20307;-29
2023/08/25 06:49:21;;;;;;;0.60;0.60;;;;;;;23.57;60.82;96705.31;10450067;28;20037;-30
2023/08/25 06:54:24;;;;;;;0.70;0.70;;;;;;;23.58;60.91;96753.00;10434721;28;20036;-29
2023/08/25 06:59:24;;;;;;;0.80;0.80;;;;;;;23.59;60.76;96799.88;10432546;28;20060;-29
2023/08/25 07:04:25;;;;;;;0.80;0.80;;;;;;;23.56;60.84;96762.44;10442747;28;20212;-29
2023/08/25 07:09:25;;;;;;;0.70;0.60;;;;;;;23.53;60.74;96724.16;10431173;28;20037;-30
2023/08/25 07:14:29;;;;;;;0.73;0.70;;;;;;;23.53;60.38;96693.50;10442991;28;20037;-28
2023/08/25 07:19:29;;;;;;;0.65;0.55;;;;;;;23.49;60.69;96615.19;10430317;28;20082;-30
2023/08/25 07:24:29;;;;;;;0.30;0.30;;;;;;;23.50;60.61;96598.97;10430752;28;20062;-30
2023/08/25 07:29:30;;;;;;;0.40;0.40;;;;;;;23.51;60.76;96592.16;10434531;28;20043;-30
2023/08/25 07:34:30;;;;;;;0.40;0.40;;;;;;;23.51;60.64;96587.06;10456380;28;20033;-30
2023/08/25 07:39:30;;;;;;;0.70;0.67;;;;;;;23.52;60.79;96604.91;10426622;28;20037;-30
2023/08/25 07:44:31;;;;;;;0.60;0.60;;;;;;;23.51;60.70;96582.81;10455984;28;20045;-29
2023/08/25 07:49:32;;;;;;;0.70;0.60;;;;;;;23.51;60.66;96572.56;10431644;28;20033;-30
2023/08/25 07:54:32;;;;;;;0.45;0.45;;;;;;;23.51;60.41;96567.47;10444580;28;20033;-28
2023/08/25 07:59:33;;;;;;;0.70;0.45;;;;;;;23.50;60.68;96542.75;10449615;28;20487;-30
2023/08/25 08:04:33;;;;;;;0.70;0.70;;;;;;;23.52;60.67;96558.91;10434429;28;20037;-30
2023/08/25 08:09:33;;;;;;;0.53;0.53;;;;;;;23.50;60.66;96524.88;10447392;28;20413;-30
2023/08/25 08:14:36;;;;;;;0.43;0.43;;;;;;;23.50;60.60;96508.72;10431303;28;20288;-29
2023/08/25 08:19:36;;;;;;;0.50;0.50;;;;;;;23.51;59.98;96515.50;10447135;28;20457;-29
2023/08/25 08:24:37;;;;;;;0.63;0.63;;;;;;;23.50;60.68;96514.63;10435646;28;20434;-29
2023/08/25 08:29:37;;;;;;;0.50;0.50;;;;;;;23.51;60.60;96505.28;10448911;28;20041;-29
2023/08/25 08:34:38;;;;;;;0.40;0.40;;;;;;;23.50;60.66;96504.41;10439586;28;20368;-31
2023/08/25 08:39:38;;;;;;;0.70;0.50;;;;;;;23.47;60.71;96478.94;10453819;28;20033;-30
2023/08/25 08:44:47;;;;;;;0.40;0.40;;;;;;;23.51;60.67;96506.13;10442567;28;20040;-30
2023/08/25 08:49:50;;;;;;;0.43;0.43;;;;;;;23.51;60.79;96503.56;10439548;28;20302;-30
2023/08/25 08:54:50;;;;;;;0.73;0.70;;;;;;;23.51;60.79;96488.25;10445292;28;20120;-30
2023/08/25 08:59:52;;;;;;;0.70;0.70;;;;;;;23.52;60.61;96496.72;10439032;28;20104;-30
2023/08/25 09:04:57;;;;;;;0.77;0.60;;;;;;;23.52;60.68;96497.59;10439454;28;20319;-30
2023/08/25 09:09:58;;;;;;;0.57;0.57;;;;;;;23.52;60.46;96497.59;10449515;28;20178;-30
2023/08/25 09:14:58;;;;;;;0.70;0.70;;;;;;;23.53;60.71;96519.72;10442439;28;20166;-29
2023/08/25 09:20:05;;;;;;;0.60;0.60;;;;;;;23.52;60.79;96523.13;10452906;28;20033;-30
2023/08/25 09:25:06;;;;;;;0.60;0.60;;;;;;;23.52;60.64;96538.47;10434506;28;20665;-29
2023/08/25 09:30:08;;;;;;;0.70;0.70;;;;;;;23.53;60.75;96539.28;10453028;28;20040;-30
2023/08/25 09:35:13;;;;;;;0.70;0.70;;;;;;;23.50;60.54;96550.41;10438998;28;20036;-30
2023/08/25 09:40:15;;;;;;;0.70;0.70;;;;;;;23.53;60.81;96563.16;10431443;28;20037;-30
2023/08/25 09:45:15;;;;;;;0.50;0.50;;;;;;;23.52;60.59;96558.91;10449799;28;20325;-29
2023/08/25 09:50:17;;;;;;;0.60;0.60;;;;;;;23.53;60.92;96560.59;10432939;28;20534;-30
2023/08/25 09:55:18;;;;;;;1.08;1.08;;;;;;;23.53;60.63;96550.38;10450488;28;20048;-30
2023/08/25 10:00:19;;;;;;;0.70;0.70;;;;;;;23.53;60.73;96549.53;10432516;28;20036;-30
2023/08/25 10:05:20;;;;;;;1.17;0.68;;;;;;;23.57;61.21;96572.41;10451529;28;20089;-29
2023/08/25 10:10:21;;;;;;;0.68;0.68;;;;;;;23.58;61.28;96548.53;10426714;28;20060;-30
2023/08/25 10:15:24;;;;;;;0.77;0.77;;;;;;;23.61;61.02;96533.16;10426585;28;20080;-30
2023/08/25 10:20:26;;;;;;;1.20;1.10;;;;;;;23.60;61.05;96549.38;10450209;28;20483;-29
2023/08/25 10:25:29;;;;;;;0.88;0.88;;;;;;;23.61;60.98;96538.25;10432909;28;20120;-30
2023/08/25 10:30:31;;;;;;;0.82;0.82;;;;;;;23.61;60.94;96542.53;10450552;28;20038;-30
2023/08/25 10:35:44;;;;;;;1.58;1.33;;;;;;;23.59;60.74;96550.22;10435182;28;20041;-30
2023/08/25 10:40:55;;;;;;;0.80;0.80;;;;;;;23.60;60.82;96557.03;10435330;28;20033;-30
2023/08/25 10:45:56;;;;;;;0.65;0.65;;;;;;;23.59;60.89;96547.66;10445145;28;20120;-30
2023/08/25 10:51:18;;;;;;;0.68;0.68;;;;;;;23.60;60.87;96572.38;10437998;28;20410;-30
2023/08/25 10:56:18;;;;;;;1.27;0.73;;;;;;;23.60;60.98;96545.97;10449610;28;20029;-30
2023/08/25 11:01:19;;;;;;;1.25;1.17;;;;;;;23.59;60.74;96546.84;10424304;28;20041;-30
2023/08/25 11:06:44;;;;;;;0.60;0.60;;;;;;;23.62;60.99;96545.06;10426084;28;20029;-30
2023/08/25 11:11:46;;;;;;;0.60;0.60;;;;;;;23.63;61.17;96526.28;10424208;28;20058;-29
2023/08/25 11:16:48;;;;;;;1.10;0.80;;;;;;;23.62;61.03;96522.03;10435716;28;20029;-31
2023/08/25 11:21:59;;;;;;;0.88;0.88;;;;;;;23.61;60.60;96484.59;10453009;28;20034;-29
2023/08/25 11:27:09;;;;;;;1.65;1.20;;;;;;;23.61;60.90;96446.25;10452585;28;20119;-29
2023/08/25 11:32:14;;;;;;;0.80;0.70;;;;;;;23.57;60.93;96408.84;10436757;28;20151;-29
2023/08/25 11:37:15;;;;;;;0.90;0.80;;;;;;;23.58;60.84;96391.81;10449246;28;20033;-31
2023/08/25 11:42:19;;;;;;;0.70;0.70;;;;;;;23.56;60.93;96319.44;10440847;28;20037;-30
2023/08/25 11:47:21;;;;;;;0.75;0.70;;;;;;;23.54;60.62;96240.25;10447168;28;20048;-30
2023/08/25 11:52:22;;;;;;;0.80;0.80;;;;;;;23.54;60.67;96173.81;10453994;28;20052;-30
2023/08/25 11:57:35;;;;;;;0.70;0.70;;;;;;;23.57;60.69;96171.16;10439670;28;20033;-29
2023/08/25 12:02:35;;;;;;;0.60;0.60;;;;;;;23.57;60.59;96183.13;10447442;28;20028;-29
2023/08/25 12:07:37;;;;;;;0.80;0.80;;;;;;;23.57;61.09;96183.94;10420938;28;20041;-30
2023/08/25 12:12:38;;;;;;;0.60;0.60;;;;;;;23.58;61.17;96216.28;10442693;28;20291;-30
2023/08/25 12:17:39;;;;;;;0.60;0.60;;;;;;;23.59;60.82;96223.06;10454208;28;20032;-30
2023/08/25 12:22:57;;;;;;;2.03;0.80;;;;;;;23.60;60.53;96244.34;10433938;28;20053;-30
2023/08/25 12:27:57;;;;;;;0.75;0.70;;;;;;;23.60;60.80;96258.00;10444063;28;20071;-30
2023/08/25 12:32:58;;;;;;;0.70;0.67;;;;;;;23.59;60.90;96263.94;10430000;28;20044;-29
2023/08/25 12:37:58;;;;;;;0.70;0.70;;;;;;;23.55;60.72;96259.81;10442608;28;20829;-29
2023/08/25 12:42:59;;;;;;;0.80;0.80;;;;;;;23.59;60.77;96270.81;10454254;28;20091;-29
2023/08/25 12:47:59;;;;;;;1.07;0.67;;;;;;;23.58;60.72;96279.34;10440367;28;20036;-30
2023/08/25 12:53:00;;;;;;;0.68;0.60;;;;;;;23.58;60.70;96262.28;10453578;28;20036;-30
2023/08/25 12:58:00;;;;;;;0.90;0.70;;;;;;;23.56;60.88;96243.59;10439797;28;20091;-30
2023/08/25 13:03:02;;;;;;;0.70;0.70;;;;;;;23.58;60.81;96246.94;10453214;28;20044;-30
2023/08/25 13:08:03;;;;;;;0.68;0.68;;;;;;;23.58;60.76;96241.84;10434035;28;20796;-29
2023/08/25 13:13:05;;;;;;;0.68;0.65;;;;;;;23.59;60.85;96258.84;10450069;28;20063;-29
2023/08/25 13:18:06;;;;;;;0.82;0.80;;;;;;;23.58;60.66;96251.25;10434805;28;20403;-30
2023/08/25 13:23:06;;;;;;;0.52;0.52;;;;;;;23.59;61.06;96230.72;10418847;28;20041;-30
2023/08/25 13:28:07;;;;;;;0.50;0.50;;;;;;;23.59;60.93;96263.13;10438088;28;20110;-30
2023/08/25 13:33:08;;;;;;;0.50;0.50;;;;;;;23.60;60.87;96260.53;10439263;28;20033;-29
2023/08/25 13:38:09;;;;;;;0.70;0.70;;;;;;;23.59;60.91;96269.06;10425992;28;20162;-30
2023/08/25 13:43:12;;;;;;;1.02;0.57;;;;;;;23.59;60.82;96258.84;10443283;28;20033;-29
2023/08/25 13:48:13;;;;;;;0.73;0.60;;;;;;;23.61;61.15;96282.66;10427986;28;20096;-30
2023/08/25 13:53:13;;;;;;;0.80;0.80;;;;;;;23.60;61.20;96281.00;10451182;28;20029;-30
2023/08/25 13:58:13;;;;;;;0.70;0.70;;;;;;;23.62;61.32;96296.25;10425770;28;20044;-29
2023/08/25 14:03:14;;;;;;;0.63;0.63;;;;;;;23.63;61.10;96300.50;10434260;28;20296;-29
2023/08/25 14:08:14;;;;;;;0.67;0.63;;;;;;;23.61;61.10;96298.00;10429337;28;20033;-29
2023/08/25 14:13:15;;;;;;;0.70;0.70;;;;;;;23.62;61.16;96301.38;10421451;28;20025;-28
2023/08/25 14:18:15;;;;;;;0.73;0.73;;;;;;;23.62;60.81;96299.69;10446090;28;20033;-30
2023/08/25 14:23:15;;;;;;;0.80;0.80;;;;;;;23.60;61.09;96292.91;10437137;28;20025;-29
2023/08/25 14:28:16;;;;;;;0.70;0.70;;;;;;;23.60;60.88;96280.13;10446657;28;20055;-30
2023/08/25 14:33:16;;;;;;;0.50;0.50;;;;;;;23.61;61.04;96281.81;10420997;28;20036;-29
2023/08/25 14:38:16;;;;;;;0.70;0.70;;;;;;;23.59;60.89;96258.84;10442109;28;20039;-29
2023/08/25 14:43:17;;;;;;;0.60;0.60;;;;;;;23.60;60.80;96249.47;10428917;28;20300;-30
2023/08/25 14:48:17;;;;;;;0.87;0.60;;;;;;;23.57;61.00;96229.13;10433766;28;20033;-30
2023/08/25 14:53:17;;;;;;;0.70;0.70;;;;;;;23.57;60.96;96217.16;10437168;28;20033;-30
2023/08/25 14:58:18;;;;;;;0.90;0.90;;;;;;;23.57;60.79;96212.06;10433219;28;20296;-29
2023/08/25 15:03:18;;;;;;;0.87;0.87;;;;;;;23.57;60.84;96216.34;10445126;28;20457;-30
2023/08/25 15:08:19;;;;;;;1.80;0.60;;;;;;;23.57;60.98;96218.91;10428963;28;20037;-30
2023/08/25 15:13:19;;;;;;;0.60;0.60;;;;;;;23.57;60.93;96204.38;10448002;28;20399;-30
2023/08/25 15:18:19;;;;;;;0.50;0.50;;;;;;;23.57;61.01;96201.84;10436554;28;20055;-29
2023/08/25 15:23:20;;;;;;;0.50;0.47;;;;;;;23.57;60.71;96189.06;10449102;28;20032;-31
2023/08/25 15:28:22;;;;;;;0.60;0.60;;;;;;;23.58;60.97;96195.84;10429758;28;20299;-30
2023/08/25 15:33:24;;;;;;;0.57;0.57;;;;;;;23.59;61.02;96196.69;10449489;28;20029;-28
2023/08/25 15:38:25;;;;;;;0.95;0.65;;;;;;;23.60;60.95;96189.00;10424587;28;20495;-29
2023/08/25 15:43:26;;;;;;;0.68;0.50;;;;;;;23.60;61.15;96194.09;10448889;28;20095;-30
2023/08/25 15:48:26;;;;;;;0.93;0.53;;;;;;;23.60;60.95;96191.53;10433695;28;20040;-30
2023/08/25 15:53:27;;;;;;;0.70;0.70;;;;;;;23.59;60.78;96189.84;10438450;28;20112;-30
2023/08/25 15:58:27;;;;;;;0.57;0.57;;;;;;;23.58;61.05;96190.72;10455979;28;20032;-29
2023/08/25 16:03:29;;;;;;;0.60;0.60;;;;;;;23.56;60.71;96187.38;10433327;28;20025;-30
2023/08/25 16:08:30;;;;;;;0.52;0.50;;;;;;;23.52;60.86;96185.81;10447250;28;20033;-29
2023/08/25 16:13:31;;;;;;;0.50;0.50;;;;;;;23.56;60.77;96192.50;10432750;28;20431;-29
2023/08/25 16:18:32;;;;;;;1.17;0.40;;;;;;;23.49;60.99;96180.75;10432567;28;20653;-29
2023/08/25 16:23:35;;;;;;;0.70;0.70;;;;;;;23.55;60.84;96165.25;10447949;28;20029;-30
2023/08/25 16:28:39;;;;;;;0.50;0.50;;;;;;;23.54;60.96;96150.81;10438141;28;20047;-30
2023/08/25 16:33:39;;;;;;;0.43;0.43;;;;;;;23.56;60.80;96145.69;10454481;28;20029;-30
2023/08/25 16:38:40;;;;;;;0.60;0.60;;;;;;;23.53;60.74;96136.38;10435952;28;20328;-29
2023/08/25 16:43:40;;;;;;;0.63;0.52;;;;;;;23.54;60.78;96107.38;10454229;28;20526;-30
2023/08/25 16:48:40;;;;;;;0.50;0.50;;;;;;;23.56;60.84;96131.16;10429678;28;20033;-30
2023/08/25 16:53:41;;;;;;;0.50;0.50;;;;;;;23.57;60.94;96147.34;10442834;28;20035;-30
2023/08/25 16:58:41;;;;;;;0.63;0.63;;;;;;;23.50;60.74;96131.31;10451074;28;20045;-29
2023/08/25 17:03:42;;;;;;;0.60;0.60;;;;;;;23.54;60.78;96109.09;10433514;28;20404;-30
2023/08/25 17:08:42;;;;;;;0.50;0.50;;;;;;;23.56;60.80;96122.69;10450845;28;20025;-29
2023/08/25 17:13:42;;;;;;;0.47;0.47;;;;;;;23.57;60.70;96142.22;10422922;28;20087;-30
2023/08/25 17:18:45;;;;;;;0.52;0.50;;;;;;;23.54;60.99;96148.25;10450554;28;20037;-30
2023/08/25 17:23:46;;;;;;;0.50;0.50;;;;;;;23.51;60.96;96152.63;10430766;28;20037;-30
2023/08/25 17:28:47;;;;;;;0.40;0.40;;;;;;;23.52;60.78;96155.16;10446338;28;20120;-30
2023/08/25 17:33:47;;;;;;;0.52;0.50;;;;;;;23.54;60.72;96148.25;10447888;28;20033;-30
2023/08/25 17:38:47;;;;;;;0.80;0.43;;;;;;;23.52;60.93;96160.25;10441534;28;20032;-30
2023/08/25 17:43:48;;;;;;;0.37;0.37;;;;;;;23.54;61.04;96167.84;10452280;28;20029;-30
2023/08/25 17:48:48;;;;;;;0.37;0.37;;;;;;;23.54;60.89;96168.72;10433157;28;20033;-30
2023/08/25 17:53:49;;;;;;;0.43;0.43;;;;;;;23.55;60.86;96180.59;10450504;28;20021;-31
2023/08/25 17:58:49;;;;;;;0.50;0.50;;;;;;;23.54;60.49;96178.94;10447363;28;20028;-29
2023/08/25 18:03:49;;;;;;;0.50;0.50;;;;;;;23.53;60.78;96184.91;10431394;28;20806;-30
2023/08/25 18:08:50;;;;;;;0.50;0.50;;;;;;;23.52;60.91;96180.69;10451264;28;20483;-30
2023/08/25 18:13:50;;;;;;;0.40;0.40;;;;;;;23.53;61.00;96195.16;10438792;28;20029;-30
2023/08/25 18:18:51;;;;;;;0.40;0.40;;;;;;;23.53;61.33;96192.59;10433687;28;20033;-29
2023/08/25 18:23:51;;;;;;;0.50;0.50;;;;;;;23.52;60.80;96193.47;10450947;28;20044;-29
2023/08/25 18:28:51;;;;;;;0.50;0.43;;;;;;;23.52;60.60;96201.13;10434430;28;20411;-30
2023/08/25 18:33:52;;;;;;;0.40;0.40;;;;;;;23.54;60.73;96218.97;10450194;28;20494;-30
2023/08/25 18:38:52;;;;;;;0.50;0.50;;;;;;;23.56;60.75;96207.00;10432183;28;20370;-30
2023/08/25 18:43:52;;;;;;;0.30;0.30;;;;;;;23.54;60.67;96199.38;10441572;28;20033;-29
2023/08/25 18:48:53;;;;;;;0.40;0.40;;;;;;;23.53;60.73;96187.47;10439647;28;20037;-31
2023/08/25 18:53:53;;;;;;;0.40;0.40;;;;;;;23.52;60.66;96190.91;10430769;28;20033;-30
2023/08/25 18:58:54;;;;;;;0.50;0.50;;;;;;;23.53;60.64;96182.38;10449928;28;20029;-30
2023/08/25 19:03:54;;;;;;;0.40;0.40;;;;;;;23.53;60.56;96167.03;10434281;28;20033;-29
2023/08/25 19:08:55;;;;;;;0.30;0.30;;;;;;;23.52;60.61;96161.97;10443935;28;20040;-29
2023/08/25 19:13:55;;;;;;;0.33;0.33;;;;;;;23.52;60.83;96160.25;10444773;28;20035;-29
2023/08/25 19:18:56;;;;;;;0.50;0.50;;;;;;;23.52;60.81;96180.69;10440519;28;20296;-29
2023/08/25 19:23:57;;;;;;;0.57;0.57;;;;;;;23.53;60.75;96167.03;10437225;28;20087;-29
2023/08/25 19:28:58;;;;;;;0.30;0.30;;;;;;;23.52;60.73;96165.38;10444147;28;20055;-30
2023/08/25 19:33:59;;;;;;;0.30;0.30;;;;;;;23.52;60.75;96160.25;10456987;28;20028;-29
2023/08/25 19:38:59;;;;;;;0.40;0.40;;;;;;;23.52;60.65;96185.81;10432739;28;20032;-29
2023/08/25 19:44:01;;;;;;;0.43;0.43;;;;;;;23.53;60.53;96214.75;10451357;28;20407;-31
2023/08/25 19:49:01;;;;;;;0.40;0.40;;;;;;;23.54;60.73;96253.03;10444754;28;20082;-30
2023/08/25 19:54:03;;;;;;;0.50;0.50;;;;;;;23.55;60.67;96293.03;10446435;28;20373;-30
2023/08/25 19:59:04;;;;;;;0.40;0.40;;;;;;;23.55;60.65;96303.25;10454767;28;20085;-29
2023/08/25 20:04:04;;;;;;;0.70;0.70;;;;;;;23.54;60.64;96327.16;10436232;28;20503;-30
2023/08/25 20:09:05;;;;;;;0.70;0.70;;;;;;;23.53;60.68;96296.50;10456056;28;20037;-30
2023/08/25 20:14:05;;;;;;;0.50;0.50;;;;;;;23.53;60.54;96255.63;10439406;28;20037;-30
2023/08/25 20:19:06;;;;;;;0.60;0.60;;;;;;;23.53;60.66;96223.25;10450787;28;20423;-30
2023/08/25 20:24:09;;;;;;;0.47;0.40;;;;;;;23.52;60.75;96248.84;10452275;28;20040;-29
2023/08/25 20:29:11;;;;;;;0.70;0.43;;;;;;;23.52;60.65;96256.50;10443755;28;20124;-28
2023/08/25 20:34:12;;;;;;;0.43;0.43;;;;;;;23.51;60.60;96235.25;10436699;28;20036;-29
2023/08/25 20:39:12;;;;;;;0.50;0.40;;;;;;;23.52;60.61;96236.91;10440266;28;20407;-32
2023/08/25 20:44:12;;;;;;;0.30;0.30;;;;;;;23.51;60.60;96253.13;10453835;28;20044;-30
2023/08/25 20:49:13;;;;;;;0.50;0.30;;;;;;;23.51;60.59;96253.13;10438787;28;20044;-30
2023/08/25 20:54:13;;;;;;;0.50;0.50;;;;;;;23.51;60.63;96248.03;10443757;28;20762;-30
2023/08/25 20:59:14;;;;;;;0.40;0.40;;;;;;;23.52;60.67;96288.03;10444246;28;20036;-30
2023/08/25 21:04:14;;;;;;;0.50;0.50;;;;;;;23.47;60.63;96297.50;10439390;28;20112;-29
2023/08/25 21:09:14;;;;;;;0.40;0.30;;;;;;;23.50;60.58;96284.66;10453219;28;20487;-30
2023/08/25 21:14:15;;;;;;;0.22;0.22;;;;;;;23.51;60.61;96285.50;10429314;28;20502;-30
2023/08/25 21:19:15;;;;;;;0.27;0.27;;;;;;;23.50;60.46;96279.53;10441971;28;20045;-30
2023/08/25 21:24:16;;;;;;;0.27;0.27;;;;;;;23.51;60.75;96275.28;10452600;28;20052;-30
2023/08/25 21:29:16;;;;;;;0.20;0.20;;;;;;;23.47;60.76;96266.84;10427656;28;20090;-30
2023/08/25 21:34:16;;;;;;;0.22;0.20;;;;;;;23.50;60.68;96242.94;10451614;28;20025;-31
2023/08/25 21:39:17;;;;;;;0.57;0.57;;;;;;;23.49;60.57;96242.09;10432575;28;20411;-30
2023/08/25 21:44:18;;;;;;;0.37;0.30;;;;;;;23.52;60.66;96233.50;10440096;28;20503;-30
2023/08/25 21:49:18;;;;;;;0.50;0.50;;;;;;;23.50;60.68;96225.06;10442754;28;20045;-29
2023/08/25 21:54:19;;;;;;;0.40;0.40;;;;;;;23.52;60.53;96225.84;10427584;28;20029;-29
2023/08/25 21:59:19;;;;;;;0.50;0.50;;;;;;;23.51;60.60;96227.59;10451662;28;20041;-30
2023/08/25 22:04:20;;;;;;;0.50;0.50;;;;;;;23.52;60.57;96221.59;10419218;28;20447;-30
2023/08/25 22:09:20;;;;;;;0.90;0.77;;;;;;;23.48;60.68;96227.63;10432186;28;20040;-30
2023/08/25 22:14:21;;;;;;;0.47;0.47;;;;;;;23.53;60.67;96220.69;10433039;28;20454;-29
2023/08/25 22:19:24;;;;;;;0.60;0.60;;;;;;;23.52;60.68;96241.19;10436973;28;20075;-30
2023/08/25 22:24:25;;;;;;;0.60;0.60;;;;;;;23.52;60.53;96265.03;10450652;28;20037;-30
2023/08/25 22:29:25;;;;;;;1.30;0.67;;;;;;;23.52;60.44;96265.03;10433122;28;20507;-30
2023/08/25 22:34:25;;;;;;;0.70;0.70;;;;;;;23.51;60.75;96265.91;10450019;28;20330;-30
2023/08/25 22:39:26;;;;;;;0.52;0.52;;;;;;;23.48;60.68;96276.19;10435325;28;20037;-30
2023/08/25 22:44:26;;;;;;;0.50;0.50;;;;;;;23.51;60.58;96273.56;10427327;28;20045;-30
2023/08/25 22:49:26;;;;;;;0.40;0.40;;;;;;;23.50;60.67;96276.97;10441808;28;20094;-29
2023/08/25 22:54:28;;;;;;;0.53;0.53;;;;;;;23.52;60.65;96275.25;10417108;28;20025;-29
2023/08/25 22:59:28;;;;;;;0.40;0.40;;;;;;;23.50;60.56;96274.44;10434584;28;20073;-30
2023/08/25 23:04:29;;;;;;;0.50;0.50;;;;;;;23.50;60.58;96269.31;10425045;28;20517;-29
2023/08/25 23:09:29;;;;;;;0.40;0.40;;;;;;;23.51;60.62;96260.81;10443895;28;20296;-31
2023/08/25 23:14:30;;;;;;;0.50;0.50;;;;;;;23.52;60.44;96262.47;10441398;28;20037;-30
2023/08/25 23:19:30;;;;;;;0.70;0.70;;;;;;;23.52;60.72;96252.25;10431662;28;20087;-32